sensor_id;sensor_type;location;lat;lon;timestamp;P1;durP1;ratioP1;P2;durP2;ratioP2
20832;SDS011;56075;51.264;7.150;2023-03-01T00:01:35;13.33;;;4.60;;
20832;SDS011;56075;51.264;7.150;2023-03-01T00:04:07;12.13;;;4.40;;
20832;SDS011;56075;51.264;7.150;2023-03-01T00:06:38;9.37;;;3.93;;
20832;SDS011;56075;51.264;7.150;2023-03-01T00:09:10;7.80;;;4.00;;
20832;SDS011;56075;51.264;7.150;2023-03-01T00:11:41;12.03;;;4.57;;
20832;SDS011;56075;51.264;7.150;2023-03-01T00:14:13;9.77;;;4.57;;
20832;SDS011;56075;51.264;7.150;2023-03-01T00:16:46;11.07;;;4.40;;
20832;SDS011;56075;51.264;7.150;2023-03-01T00:19:18;9.93;;;3.90;;
20832;SDS011;56075;51.264;7.150;2023-03-01T00:21:50;6.57;;;2.97;;
20832;SDS011;56075;51.264;7.150;2023-03-01T00:24:21;13.50;;;4.17;;
20832;SDS011;56075;51.264;7.150;2023-03-01T00:26:54;13.10;;;5.10;;
20832;SDS011;56075;51.264;7.150;2023-03-01T00:29:28;9.90;;;4.03;;
20832;SDS011;56075;51.264;7.150;2023-03-01T00:32:00;9.57;;;4.67;;
20832;SDS011;56075;51.264;7.150;2023-03-01T00:34:31;8.17;;;3.60;;
20832;SDS011;56075;51.264;7.150;2023-03-01T00:37:05;9.63;;;4.23;;
20832;SDS011;56075;51.264;7.150;2023-03-01T00:39:36;7.67;;;3.30;;
20832;SDS011;56075;51.264;7.150;2023-03-01T00:42:07;9.57;;;3.90;;
20832;SDS011;56075;51.264;7.150;2023-03-01T00:44:39;6.80;;;3.27;;
20832;SDS011;56075;51.264;7.150;2023-03-01T00:47:10;12.73;;;4.63;;
20832;SDS011;56075;51.264;7.150;2023-03-01T00:49:42;10.30;;;4.77;;
20832;SDS011;56075;51.264;7.150;2023-03-01T00:52:13;8.67;;;3.57;;
20832;SDS011;56075;51.264;7.150;2023-03-01T00:54:45;16.53;;;6.33;;
20832;SDS011;56075;51.264;7.150;2023-03-01T00:57:17;12.67;;;5.57;;
20832;SDS011;56075;51.264;7.150;2023-03-01T00:59:49;13.37;;;5.73;;
20832;SDS011;56075;51.264;7.150;2023-03-01T01:02:22;7.10;;;3.37;;
20832;SDS011;56075;51.264;7.150;2023-03-01T01:04:54;10.13;;;3.93;;
20832;SDS011;56075;51.264;7.150;2023-03-01T01:07:25;13.67;;;4.47;;
20832;SDS011;56075;51.264;7.150;2023-03-01T01:09:57;9.60;;;4.20;;
20832;SDS011;56075;51.264;7.150;2023-03-01T01:12:28;8.57;;;3.63;;
20832;SDS011;56075;51.264;7.150;2023-03-01T01:15:00;7.87;;;4.00;;
20832;SDS011;56075;51.264;7.150;2023-03-01T01:17:32;8.27;;;4.13;;
20832;SDS011;56075;51.264;7.150;2023-03-01T01:20:04;9.10;;;3.67;;
20832;SDS011;56075;51.264;7.150;2023-03-01T01:22:35;11.37;;;3.77;;
20832;SDS011;56075;51.264;7.150;2023-03-01T01:25:07;8.10;;;3.30;;
20832;SDS011;56075;51.264;7.150;2023-03-01T01:27:39;12.23;;;5.17;;
20832;SDS011;56075;51.264;7.150;2023-03-01T01:30:10;7.93;;;3.50;;
20832;SDS011;56075;51.264;7.150;2023-03-01T01:32:42;11.33;;;4.33;;
20832;SDS011;56075;51.264;7.150;2023-03-01T01:35:13;15.73;;;6.40;;
20832;SDS011;56075;51.264;7.150;2023-03-01T01:37:45;14.30;;;6.30;;
20832;SDS011;56075;51.264;7.150;2023-03-01T01:40:16;9.73;;;4.10;;
20832;SDS011;56075;51.264;7.150;2023-03-01T01:42:48;12.07;;;4.60;;
20832;SDS011;56075;51.264;7.150;2023-03-01T01:45:26;14.10;;;5.63;;
20832;SDS011;56075;51.264;7.150;2023-03-01T01:48:00;5.73;;;3.20;;
20832;SDS011;56075;51.264;7.150;2023-03-01T01:50:31;11.97;;;4.37;;
20832;SDS011;56075;51.264;7.150;2023-03-01T01:53:12;9.63;;;4.63;;
20832;SDS011;56075;51.264;7.150;2023-03-01T01:55:47;11.70;;;4.27;;
20832;SDS011;56075;51.264;7.150;2023-03-01T01:58:20;16.00;;;4.50;;
20832;SDS011;56075;51.264;7.150;2023-03-01T02:00:52;11.63;;;4.80;;
20832;SDS011;56075;51.264;7.150;2023-03-01T02:03:28;11.40;;;5.20;;
20832;SDS011;56075;51.264;7.150;2023-03-01T02:06:04;11.97;;;4.87;;
20832;SDS011;56075;51.264;7.150;2023-03-01T02:08:37;10.20;;;4.70;;
20832;SDS011;56075;51.264;7.150;2023-03-01T02:11:09;10.57;;;3.37;;
20832;SDS011;56075;51.264;7.150;2023-03-01T02:13:41;15.03;;;5.67;;
20832;SDS011;56075;51.264;7.150;2023-03-01T02:16:14;13.23;;;5.30;;
20832;SDS011;56075;51.264;7.150;2023-03-01T02:18:45;10.67;;;4.27;;
20832;SDS011;56075;51.264;7.150;2023-03-01T02:24:15;12.60;;;5.03;;
20832;SDS011;56075;51.264;7.150;2023-03-01T02:26:48;10.53;;;4.50;;
20832;SDS011;56075;51.264;7.150;2023-03-01T02:29:22;15.13;;;5.67;;
20832;SDS011;56075;51.264;7.150;2023-03-01T02:31:54;17.17;;;5.50;;
20832;SDS011;56075;51.264;7.150;2023-03-01T02:34:30;11.63;;;4.87;;
20832;SDS011;56075;51.264;7.150;2023-03-01T02:37:05;15.60;;;5.90;;
20832;SDS011;56075;51.264;7.150;2023-03-01T02:39:40;10.87;;;5.23;;
20832;SDS011;56075;51.264;7.150;2023-03-01T02:42:15;15.20;;;5.97;;
20832;SDS011;56075;51.264;7.150;2023-03-01T02:44:49;9.73;;;4.07;;
20832;SDS011;56075;51.264;7.150;2023-03-01T02:47:21;11.27;;;5.00;;
20832;SDS011;56075;51.264;7.150;2023-03-01T02:49:52;13.97;;;6.37;;
20832;SDS011;56075;51.264;7.150;2023-03-01T02:52:27;13.87;;;6.00;;
20832;SDS011;56075;51.264;7.150;2023-03-01T02:55:11;16.53;;;5.83;;
20832;SDS011;56075;51.264;7.150;2023-03-01T02:57:44;13.50;;;4.73;;
20832;SDS011;56075;51.264;7.150;2023-03-01T03:00:17;8.67;;;3.50;;
20832;SDS011;56075;51.264;7.150;2023-03-01T03:02:50;15.63;;;5.50;;
20832;SDS011;56075;51.264;7.150;2023-03-01T03:05:31;10.20;;;4.47;;
20832;SDS011;56075;51.264;7.150;2023-03-01T03:08:04;13.87;;;4.80;;
20832;SDS011;56075;51.264;7.150;2023-03-01T03:10:40;13.23;;;4.93;;
20832;SDS011;56075;51.264;7.150;2023-03-01T03:13:14;13.23;;;5.30;;
20832;SDS011;56075;51.264;7.150;2023-03-01T03:15:50;14.00;;;5.13;;
20832;SDS011;56075;51.264;7.150;2023-03-01T03:18:22;14.33;;;5.73;;
20832;SDS011;56075;51.264;7.150;2023-03-01T03:20:56;13.13;;;5.63;;
20832;SDS011;56075;51.264;7.150;2023-03-01T03:23:27;15.40;;;6.27;;
20832;SDS011;56075;51.264;7.150;2023-03-01T03:26:00;16.17;;;5.67;;
20832;SDS011;56075;51.264;7.150;2023-03-01T03:28:32;11.50;;;5.17;;
20832;SDS011;56075;51.264;7.150;2023-03-01T03:31:05;11.00;;;4.60;;
20832;SDS011;56075;51.264;7.150;2023-03-01T03:33:36;11.13;;;4.93;;
20832;SDS011;56075;51.264;7.150;2023-03-01T03:36:08;15.87;;;5.60;;
20832;SDS011;56075;51.264;7.150;2023-03-01T03:38:43;14.17;;;5.40;;
20832;SDS011;56075;51.264;7.150;2023-03-01T03:41:16;13.70;;;5.83;;
20832;SDS011;56075;51.264;7.150;2023-03-01T03:43:48;15.73;;;6.30;;
20832;SDS011;56075;51.264;7.150;2023-03-01T03:46:19;14.33;;;4.80;;
20832;SDS011;56075;51.264;7.150;2023-03-01T03:48:50;13.10;;;5.53;;
20832;SDS011;56075;51.264;7.150;2023-03-01T03:51:22;15.97;;;5.87;;
20832;SDS011;56075;51.264;7.150;2023-03-01T03:53:53;10.37;;;3.87;;
20832;SDS011;56075;51.264;7.150;2023-03-01T03:56:25;17.63;;;6.67;;
20832;SDS011;56075;51.264;7.150;2023-03-01T03:58:56;13.73;;;6.47;;
20832;SDS011;56075;51.264;7.150;2023-03-01T04:01:27;13.57;;;4.83;;
20832;SDS011;56075;51.264;7.150;2023-03-01T04:03:59;15.70;;;5.60;;
20832;SDS011;56075;51.264;7.150;2023-03-01T04:06:34;15.40;;;6.80;;
20832;SDS011;56075;51.264;7.150;2023-03-01T04:09:05;13.27;;;4.80;;
20832;SDS011;56075;51.264;7.150;2023-03-01T04:11:37;14.77;;;5.17;;
20832;SDS011;56075;51.264;7.150;2023-03-01T04:14:09;14.77;;;6.03;;
20832;SDS011;56075;51.264;7.150;2023-03-01T04:16:40;11.97;;;5.07;;
20832;SDS011;56075;51.264;7.150;2023-03-01T04:19:12;13.13;;;5.23;;
20832;SDS011;56075;51.264;7.150;2023-03-01T04:21:45;15.37;;;6.13;;
20832;SDS011;56075;51.264;7.150;2023-03-01T04:24:16;12.17;;;5.33;;
20832;SDS011;56075;51.264;7.150;2023-03-01T04:26:48;14.23;;;5.93;;
20832;SDS011;56075;51.264;7.150;2023-03-01T04:29:19;16.33;;;6.60;;
20832;SDS011;56075;51.264;7.150;2023-03-01T04:31:51;13.00;;;5.23;;
20832;SDS011;56075;51.264;7.150;2023-03-01T04:34:22;17.93;;;6.33;;
20832;SDS011;56075;51.264;7.150;2023-03-01T04:36:54;13.27;;;5.77;;
20832;SDS011;56075;51.264;7.150;2023-03-01T04:39:25;13.77;;;5.57;;
20832;SDS011;56075;51.264;7.150;2023-03-01T04:41:57;15.37;;;5.80;;
20832;SDS011;56075;51.264;7.150;2023-03-01T04:44:28;14.17;;;5.40;;
20832;SDS011;56075;51.264;7.150;2023-03-01T04:47:00;12.97;;;5.07;;
20832;SDS011;56075;51.264;7.150;2023-03-01T04:49:31;16.90;;;5.33;;
20832;SDS011;56075;51.264;7.150;2023-03-01T04:52:03;12.47;;;5.33;;
20832;SDS011;56075;51.264;7.150;2023-03-01T04:54:35;13.00;;;5.47;;
20832;SDS011;56075;51.264;7.150;2023-03-01T04:57:06;9.50;;;4.00;;
20832;SDS011;56075;51.264;7.150;2023-03-01T04:59:38;14.57;;;5.67;;
20832;SDS011;56075;51.264;7.150;2023-03-01T05:02:09;13.07;;;5.37;;
20832;SDS011;56075;51.264;7.150;2023-03-01T05:04:41;13.27;;;5.73;;
20832;SDS011;56075;51.264;7.150;2023-03-01T05:07:12;16.27;;;6.80;;
20832;SDS011;56075;51.264;7.150;2023-03-01T05:09:49;11.37;;;5.23;;
20832;SDS011;56075;51.264;7.150;2023-03-01T05:12:21;12.80;;;5.63;;
20832;SDS011;56075;51.264;7.150;2023-03-01T05:14:52;17.00;;;6.73;;
20832;SDS011;56075;51.264;7.150;2023-03-01T05:17:23;11.70;;;5.70;;
20832;SDS011;56075;51.264;7.150;2023-03-01T05:19:55;14.47;;;5.80;;
20832;SDS011;56075;51.264;7.150;2023-03-01T05:22:30;14.03;;;6.27;;
20832;SDS011;56075;51.264;7.150;2023-03-01T05:25:02;14.43;;;5.73;;
20832;SDS011;56075;51.264;7.150;2023-03-01T05:27:34;14.90;;;6.33;;
20832;SDS011;56075;51.264;7.150;2023-03-01T05:30:06;17.17;;;6.40;;
20832;SDS011;56075;51.264;7.150;2023-03-01T05:32:47;18.00;;;5.97;;
20832;SDS011;56075;51.264;7.150;2023-03-01T05:35:19;13.17;;;5.23;;
20832;SDS011;56075;51.264;7.150;2023-03-01T05:37:51;13.20;;;5.17;;
20832;SDS011;56075;51.264;7.150;2023-03-01T05:40:23;15.83;;;6.03;;
20832;SDS011;56075;51.264;7.150;2023-03-01T05:42:55;16.10;;;6.73;;
20832;SDS011;56075;51.264;7.150;2023-03-01T05:45:27;15.73;;;6.50;;
20832;SDS011;56075;51.264;7.150;2023-03-01T05:47:58;18.93;;;6.70;;
20832;SDS011;56075;51.264;7.150;2023-03-01T05:50:32;16.83;;;5.63;;
20832;SDS011;56075;51.264;7.150;2023-03-01T05:53:05;15.97;;;6.43;;
20832;SDS011;56075;51.264;7.150;2023-03-01T05:55:38;15.80;;;6.33;;
20832;SDS011;56075;51.264;7.150;2023-03-01T05:58:11;16.03;;;6.73;;
20832;SDS011;56075;51.264;7.150;2023-03-01T06:00:45;16.67;;;5.97;;
20832;SDS011;56075;51.264;7.150;2023-03-01T06:03:17;19.53;;;7.30;;
20832;SDS011;56075;51.264;7.150;2023-03-01T06:05:48;13.17;;;6.60;;
20832;SDS011;56075;51.264;7.150;2023-03-01T06:08:20;15.33;;;5.33;;
20832;SDS011;56075;51.264;7.150;2023-03-01T06:10:52;11.40;;;4.57;;
20832;SDS011;56075;51.264;7.150;2023-03-01T06:13:24;17.43;;;6.63;;
20832;SDS011;56075;51.264;7.150;2023-03-01T06:15:55;14.93;;;6.47;;
20832;SDS011;56075;51.264;7.150;2023-03-01T06:18:27;19.40;;;5.73;;
20832;SDS011;56075;51.264;7.150;2023-03-01T06:20:58;19.00;;;7.00;;
20832;SDS011;56075;51.264;7.150;2023-03-01T06:23:29;12.80;;;5.37;;
20832;SDS011;56075;51.264;7.150;2023-03-01T06:26:04;18.30;;;6.33;;
20832;SDS011;56075;51.264;7.150;2023-03-01T06:28:36;14.37;;;5.87;;
20832;SDS011;56075;51.264;7.150;2023-03-01T06:31:07;17.70;;;7.30;;
20832;SDS011;56075;51.264;7.150;2023-03-01T06:33:38;15.47;;;6.43;;
20832;SDS011;56075;51.264;7.150;2023-03-01T06:36:10;16.93;;;6.70;;
20832;SDS011;56075;51.264;7.150;2023-03-01T06:38:41;16.23;;;6.33;;
20832;SDS011;56075;51.264;7.150;2023-03-01T06:41:13;20.37;;;8.10;;
20832;SDS011;56075;51.264;7.150;2023-03-01T06:43:44;14.60;;;6.90;;
20832;SDS011;56075;51.264;7.150;2023-03-01T06:46:16;18.10;;;7.03;;
20832;SDS011;56075;51.264;7.150;2023-03-01T06:48:47;13.07;;;5.20;;
20832;SDS011;56075;51.264;7.150;2023-03-01T06:51:19;16.93;;;6.60;;
20832;SDS011;56075;51.264;7.150;2023-03-01T06:53:50;17.23;;;6.10;;
20832;SDS011;56075;51.264;7.150;2023-03-01T06:56:22;18.63;;;7.60;;
20832;SDS011;56075;51.264;7.150;2023-03-01T06:58:53;16.17;;;6.27;;
20832;SDS011;56075;51.264;7.150;2023-03-01T07:01:25;14.07;;;4.90;;
20832;SDS011;56075;51.264;7.150;2023-03-01T07:03:56;15.63;;;6.03;;
20832;SDS011;56075;51.264;7.150;2023-03-01T07:06:28;14.80;;;5.60;;
20832;SDS011;56075;51.264;7.150;2023-03-01T07:08:59;21.70;;;6.43;;
20832;SDS011;56075;51.264;7.150;2023-03-01T07:11:32;15.97;;;5.77;;
20832;SDS011;56075;51.264;7.150;2023-03-01T07:14:03;16.70;;;5.87;;
20832;SDS011;56075;51.264;7.150;2023-03-01T07:16:35;14.00;;;6.03;;
20832;SDS011;56075;51.264;7.150;2023-03-01T07:19:07;14.47;;;5.80;;
20832;SDS011;56075;51.264;7.150;2023-03-01T07:21:38;12.40;;;5.30;;
20832;SDS011;56075;51.264;7.150;2023-03-01T07:24:10;16.23;;;5.83;;
20832;SDS011;56075;51.264;7.150;2023-03-01T07:26:41;13.30;;;6.17;;
20832;SDS011;56075;51.264;7.150;2023-03-01T07:29:12;14.07;;;5.40;;
20832;SDS011;56075;51.264;7.150;2023-03-01T07:31:44;15.10;;;6.33;;
20832;SDS011;56075;51.264;7.150;2023-03-01T07:34:16;14.40;;;6.00;;
20832;SDS011;56075;51.264;7.150;2023-03-01T07:36:47;19.07;;;7.93;;
20832;SDS011;56075;51.264;7.150;2023-03-01T07:39:18;19.80;;;7.73;;
20832;SDS011;56075;51.264;7.150;2023-03-01T07:41:50;20.13;;;6.60;;
20832;SDS011;56075;51.264;7.150;2023-03-01T07:44:25;15.60;;;6.60;;
20832;SDS011;56075;51.264;7.150;2023-03-01T07:46:57;14.00;;;6.03;;
20832;SDS011;56075;51.264;7.150;2023-03-01T07:49:28;21.83;;;7.57;;
20832;SDS011;56075;51.264;7.150;2023-03-01T07:52:00;15.57;;;7.10;;
20832;SDS011;56075;51.264;7.150;2023-03-01T07:54:31;13.80;;;5.57;;
20832;SDS011;56075;51.264;7.150;2023-03-01T07:57:03;22.43;;;7.23;;
20832;SDS011;56075;51.264;7.150;2023-03-01T07:59:34;14.53;;;6.13;;
20832;SDS011;56075;51.264;7.150;2023-03-01T08:02:06;16.97;;;6.07;;
20832;SDS011;56075;51.264;7.150;2023-03-01T08:04:37;19.77;;;7.30;;
20832;SDS011;56075;51.264;7.150;2023-03-01T08:07:08;15.17;;;5.63;;
20832;SDS011;56075;51.264;7.150;2023-03-01T08:09:40;14.23;;;6.40;;
20832;SDS011;56075;51.264;7.150;2023-03-01T08:12:11;15.73;;;5.93;;
20832;SDS011;56075;51.264;7.150;2023-03-01T08:14:43;15.23;;;5.50;;
20832;SDS011;56075;51.264;7.150;2023-03-01T08:17:14;15.53;;;6.33;;
20832;SDS011;56075;51.264;7.150;2023-03-01T08:19:46;14.47;;;6.07;;
20832;SDS011;56075;51.264;7.150;2023-03-01T08:22:17;16.30;;;6.27;;
20832;SDS011;56075;51.264;7.150;2023-03-01T08:24:49;11.07;;;4.70;;
20832;SDS011;56075;51.264;7.150;2023-03-01T08:27:20;15.53;;;5.80;;
20832;SDS011;56075;51.264;7.150;2023-03-01T08:29:51;15.27;;;6.83;;
20832;SDS011;56075;51.264;7.150;2023-03-01T08:32:23;13.80;;;5.93;;
20832;SDS011;56075;51.264;7.150;2023-03-01T08:34:54;17.03;;;5.73;;
20832;SDS011;56075;51.264;7.150;2023-03-01T08:37:26;17.10;;;7.07;;
20832;SDS011;56075;51.264;7.150;2023-03-01T08:39:58;18.00;;;6.30;;
20832;SDS011;56075;51.264;7.150;2023-03-01T08:42:30;22.63;;;8.03;;
20832;SDS011;56075;51.264;7.150;2023-03-01T08:45:02;13.77;;;5.37;;
20832;SDS011;56075;51.264;7.150;2023-03-01T08:47:33;18.37;;;7.10;;
20832;SDS011;56075;51.264;7.150;2023-03-01T08:50:05;16.93;;;6.67;;
20832;SDS011;56075;51.264;7.150;2023-03-01T08:52:36;15.80;;;6.60;;
20832;SDS011;56075;51.264;7.150;2023-03-01T08:55:11;15.93;;;6.07;;
20832;SDS011;56075;51.264;7.150;2023-03-01T08:57:43;15.07;;;6.40;;
20832;SDS011;56075;51.264;7.150;2023-03-01T09:00:23;15.27;;;6.10;;
20832;SDS011;56075;51.264;7.150;2023-03-01T09:02:55;16.50;;;6.27;;
20832;SDS011;56075;51.264;7.150;2023-03-01T09:05:27;12.90;;;5.37;;
20832;SDS011;56075;51.264;7.150;2023-03-01T09:08:01;14.83;;;6.33;;
20832;SDS011;56075;51.264;7.150;2023-03-01T09:10:32;17.87;;;6.07;;
20832;SDS011;56075;51.264;7.150;2023-03-01T09:13:04;11.13;;;5.20;;
20832;SDS011;56075;51.264;7.150;2023-03-01T09:15:39;14.33;;;6.40;;
20832;SDS011;56075;51.264;7.150;2023-03-01T09:18:10;17.57;;;5.83;;
20832;SDS011;56075;51.264;7.150;2023-03-01T09:20:42;14.90;;;5.67;;
20832;SDS011;56075;51.264;7.150;2023-03-01T09:23:13;12.40;;;5.47;;
20832;SDS011;56075;51.264;7.150;2023-03-01T09:25:45;15.10;;;7.20;;
20832;SDS011;56075;51.264;7.150;2023-03-01T09:28:16;19.90;;;6.40;;
20832;SDS011;56075;51.264;7.150;2023-03-01T09:30:49;13.60;;;6.23;;
20832;SDS011;56075;51.264;7.150;2023-03-01T09:33:20;17.70;;;6.77;;
20832;SDS011;56075;51.264;7.150;2023-03-01T09:35:58;18.93;;;6.17;;
20832;SDS011;56075;51.264;7.150;2023-03-01T09:38:30;14.23;;;6.43;;
20832;SDS011;56075;51.264;7.150;2023-03-01T09:41:02;12.50;;;5.63;;
20832;SDS011;56075;51.264;7.150;2023-03-01T09:43:37;15.37;;;6.37;;
20832;SDS011;56075;51.264;7.150;2023-03-01T09:46:13;15.37;;;6.63;;
20832;SDS011;56075;51.264;7.150;2023-03-01T09:51:34;15.00;;;6.00;;
20832;SDS011;56075;51.264;7.150;2023-03-01T09:54:06;10.87;;;5.20;;
20832;SDS011;56075;51.264;7.150;2023-03-01T09:56:40;15.60;;;6.43;;
20832;SDS011;56075;51.264;7.150;2023-03-01T10:01:44;12.33;;;5.70;;
20832;SDS011;56075;51.264;7.150;2023-03-01T10:04:27;14.57;;;5.87;;
20832;SDS011;56075;51.264;7.150;2023-03-01T10:09:41;13.23;;;5.40;;
20832;SDS011;56075;51.264;7.150;2023-03-01T10:12:14;16.10;;;6.17;;
20832;SDS011;56075;51.264;7.150;2023-03-01T10:15:04;13.77;;;6.20;;
20832;SDS011;56075;51.264;7.150;2023-03-01T10:17:42;13.77;;;6.17;;
20832;SDS011;56075;51.264;7.150;2023-03-01T10:22:46;13.15;;;5.90;;
20832;SDS011;56075;51.264;7.150;2023-03-01T10:25:24;14.90;;;6.80;;
20832;SDS011;56075;51.264;7.150;2023-03-01T10:28:01;19.93;;;7.07;;
20832;SDS011;56075;51.264;7.150;2023-03-01T10:33:17;12.27;;;5.60;;
20832;SDS011;56075;51.264;7.150;2023-03-01T10:35:50;15.20;;;6.07;;
20832;SDS011;56075;51.264;7.150;2023-03-01T10:38:22;14.52;;;7.22;;
20832;SDS011;56075;51.264;7.150;2023-03-01T10:43:32;19.13;;;6.67;;
20832;SDS011;56075;51.264;7.150;2023-03-01T10:49:12;13.80;;;5.33;;
20832;SDS011;56075;51.264;7.150;2023-03-01T10:51:45;12.17;;;5.57;;
20832;SDS011;56075;51.264;7.150;2023-03-01T10:56:50;16.43;;;6.80;;
20832;SDS011;56075;51.264;7.150;2023-03-01T11:02:22;15.40;;;5.43;;
20832;SDS011;56075;51.264;7.150;2023-03-01T11:07:33;15.87;;;6.50;;
20832;SDS011;56075;51.264;7.150;2023-03-01T11:10:18;14.13;;;6.13;;
20832;SDS011;56075;51.264;7.150;2023-03-01T11:12:53;10.47;;;5.57;;
20832;SDS011;56075;51.264;7.150;2023-03-01T11:15:26;15.17;;;6.20;;
20832;SDS011;56075;51.264;7.150;2023-03-01T11:17:57;11.63;;;5.40;;
20832;SDS011;56075;51.264;7.150;2023-03-01T11:20:31;17.00;;;6.40;;
20832;SDS011;56075;51.264;7.150;2023-03-01T11:23:10;16.73;;;6.87;;
20832;SDS011;56075;51.264;7.150;2023-03-01T11:25:42;16.83;;;5.93;;
20832;SDS011;56075;51.264;7.150;2023-03-01T11:28:16;11.67;;;5.80;;
20832;SDS011;56075;51.264;7.150;2023-03-01T11:31:05;13.10;;;5.87;;
20832;SDS011;56075;51.264;7.150;2023-03-01T11:33:58;13.13;;;5.57;;
20832;SDS011;56075;51.264;7.150;2023-03-01T11:36:35;13.10;;;5.60;;
20832;SDS011;56075;51.264;7.150;2023-03-01T11:41:42;11.47;;;4.90;;
20832;SDS011;56075;51.264;7.150;2023-03-01T11:44:18;10.37;;;4.87;;
20832;SDS011;56075;51.264;7.150;2023-03-01T11:46:57;12.00;;;4.80;;
20832;SDS011;56075;51.264;7.150;2023-03-01T11:52:31;12.93;;;5.50;;
20832;SDS011;56075;51.264;7.150;2023-03-01T12:00:44;13.53;;;5.17;;
20832;SDS011;56075;51.264;7.150;2023-03-01T12:03:25;15.97;;;5.90;;
20832;SDS011;56075;51.264;7.150;2023-03-01T12:08:54;13.07;;;4.83;;
20832;SDS011;56075;51.264;7.150;2023-03-01T12:14:59;10.63;;;4.83;;
20832;SDS011;56075;51.264;7.150;2023-03-01T12:22:29;9.93;;;4.40;;
20832;SDS011;56075;51.264;7.150;2023-03-01T12:30:17;10.70;;;5.07;;
20832;SDS011;56075;51.264;7.150;2023-03-01T12:32:59;10.60;;;5.03;;
20832;SDS011;56075;51.264;7.150;2023-03-01T12:38:37;10.27;;;4.87;;
20832;SDS011;56075;51.264;7.150;2023-03-01T12:46:56;12.07;;;4.80;;
20832;SDS011;56075;51.264;7.150;2023-03-01T12:49:34;10.70;;;4.73;;
20832;SDS011;56075;51.264;7.150;2023-03-01T12:57:57;13.17;;;5.30;;
20832;SDS011;56075;51.264;7.150;2023-03-01T13:00:37;9.37;;;4.17;;
20832;SDS011;56075;51.264;7.150;2023-03-01T13:05:56;10.87;;;4.60;;
20832;SDS011;56075;51.264;7.150;2023-03-01T13:08:56;8.17;;;4.20;;
20832;SDS011;56075;51.264;7.150;2023-03-01T13:11:32;10.60;;;5.07;;
20832;SDS011;56075;51.264;7.150;2023-03-01T13:16:53;12.13;;;5.20;;
20832;SDS011;56075;51.264;7.150;2023-03-01T13:19:25;8.87;;;4.70;;
20832;SDS011;56075;51.264;7.150;2023-03-01T13:21:59;10.50;;;4.80;;
20832;SDS011;56075;51.264;7.150;2023-03-01T13:24:38;12.17;;;5.50;;
20832;SDS011;56075;51.264;7.150;2023-03-01T13:27:11;11.67;;;4.60;;
20832;SDS011;56075;51.264;7.150;2023-03-01T13:29:58;12.40;;;4.33;;
20832;SDS011;56075;51.264;7.150;2023-03-01T13:32:37;8.30;;;4.43;;
20832;SDS011;56075;51.264;7.150;2023-03-01T13:37:50;11.03;;;5.10;;
20832;SDS011;56075;51.264;7.150;2023-03-01T13:42:54;9.63;;;4.77;;
20832;SDS011;56075;51.264;7.150;2023-03-01T13:45:38;10.50;;;5.00;;
20832;SDS011;56075;51.264;7.150;2023-03-01T13:48:26;12.17;;;4.57;;
20832;SDS011;56075;51.264;7.150;2023-03-01T13:51:00;9.83;;;4.93;;
20832;SDS011;56075;51.264;7.150;2023-03-01T13:53:36;11.40;;;4.67;;
20832;SDS011;56075;51.264;7.150;2023-03-01T13:58:48;9.30;;;4.70;;
20832;SDS011;56075;51.264;7.150;2023-03-01T14:01:28;9.80;;;4.23;;
20832;SDS011;56075;51.264;7.150;2023-03-01T14:04:00;8.17;;;4.27;;
20832;SDS011;56075;51.264;7.150;2023-03-01T14:06:32;11.00;;;4.53;;
20832;SDS011;56075;51.264;7.150;2023-03-01T14:09:20;9.43;;;4.10;;
20832;SDS011;56075;51.264;7.150;2023-03-01T14:17:34;10.80;;;4.20;;
20832;SDS011;56075;51.264;7.150;2023-03-01T14:20:20;7.40;;;3.80;;
20832;SDS011;56075;51.264;7.150;2023-03-01T14:23:08;9.55;;;4.53;;
20832;SDS011;56075;51.264;7.150;2023-03-01T14:26:02;9.15;;;4.15;;
20832;SDS011;56075;51.264;7.150;2023-03-01T14:28:34;10.75;;;4.60;;
20832;SDS011;56075;51.264;7.150;2023-03-01T14:34:04;8.48;;;4.07;;
20832;SDS011;56075;51.264;7.150;2023-03-01T14:36:36;10.02;;;4.13;;
20832;SDS011;56075;51.264;7.150;2023-03-01T14:39:15;9.27;;;4.10;;
20832;SDS011;56075;51.264;7.150;2023-03-01T14:41:48;9.43;;;4.47;;
20832;SDS011;56075;51.264;7.150;2023-03-01T14:44:21;9.55;;;5.25;;
20832;SDS011;56075;51.264;7.150;2023-03-01T14:46:55;10.27;;;5.13;;
20832;SDS011;56075;51.264;7.150;2023-03-01T14:49:29;8.95;;;4.55;;
20832;SDS011;56075;51.264;7.150;2023-03-01T14:52:02;8.45;;;4.72;;
20832;SDS011;56075;51.264;7.150;2023-03-01T14:54:42;8.82;;;4.43;;
20832;SDS011;56075;51.264;7.150;2023-03-01T14:57:18;12.57;;;4.38;;
20832;SDS011;56075;51.264;7.150;2023-03-01T14:59:55;11.88;;;4.38;;
20832;SDS011;56075;51.264;7.150;2023-03-01T15:02:31;7.13;;;3.85;;
20832;SDS011;56075;51.264;7.150;2023-03-01T15:05:03;10.13;;;4.03;;
20832;SDS011;56075;51.264;7.150;2023-03-01T15:07:36;10.25;;;4.53;;
20832;SDS011;56075;51.264;7.150;2023-03-01T15:10:16;10.68;;;4.50;;
20832;SDS011;56075;51.264;7.150;2023-03-01T15:12:52;7.07;;;3.60;;
20832;SDS011;56075;51.264;7.150;2023-03-01T15:15:38;8.98;;;3.85;;
20832;SDS011;56075;51.264;7.150;2023-03-01T15:18:33;7.95;;;4.10;;
20832;SDS011;56075;51.264;7.150;2023-03-01T15:21:08;15.40;;;4.70;;
20832;SDS011;56075;51.264;7.150;2023-03-01T15:23:52;7.90;;;4.22;;
20832;SDS011;56075;51.264;7.150;2023-03-01T15:26:35;9.18;;;3.92;;
20832;SDS011;56075;51.264;7.150;2023-03-01T15:29:19;9.15;;;5.00;;
20832;SDS011;56075;51.264;7.150;2023-03-01T15:34:37;10.48;;;4.65;;
20832;SDS011;56075;51.264;7.150;2023-03-01T15:40:18;9.35;;;4.15;;
20832;SDS011;56075;51.264;7.150;2023-03-01T15:42:52;8.52;;;4.75;;
20832;SDS011;56075;51.264;7.150;2023-03-01T15:45:24;9.20;;;3.83;;
20832;SDS011;56075;51.264;7.150;2023-03-01T15:47:59;10.20;;;4.00;;
20832;SDS011;56075;51.264;7.150;2023-03-01T15:50:36;8.00;;;4.05;;
20832;SDS011;56075;51.264;7.150;2023-03-01T15:53:11;10.38;;;4.80;;
20832;SDS011;56075;51.264;7.150;2023-03-01T15:55:47;10.90;;;4.35;;
20832;SDS011;56075;51.264;7.150;2023-03-01T15:58:22;8.93;;;3.80;;
20832;SDS011;56075;51.264;7.150;2023-03-01T16:00:54;9.23;;;4.40;;
20832;SDS011;56075;51.264;7.150;2023-03-01T16:03:27;11.35;;;4.10;;
20832;SDS011;56075;51.264;7.150;2023-03-01T16:05:58;8.13;;;4.25;;
20832;SDS011;56075;51.264;7.150;2023-03-01T16:08:29;8.88;;;4.28;;
20832;SDS011;56075;51.264;7.150;2023-03-01T16:11:00;8.35;;;3.90;;
20832;SDS011;56075;51.264;7.150;2023-03-01T16:13:35;7.90;;;4.20;;
20832;SDS011;56075;51.264;7.150;2023-03-01T16:16:06;8.73;;;4.00;;
20832;SDS011;56075;51.264;7.150;2023-03-01T16:18:43;9.82;;;4.38;;
20832;SDS011;56075;51.264;7.150;2023-03-01T16:21:22;8.82;;;4.25;;
20832;SDS011;56075;51.264;7.150;2023-03-01T16:23:55;7.97;;;3.90;;
20832;SDS011;56075;51.264;7.150;2023-03-01T16:26:26;9.20;;;3.85;;
20832;SDS011;56075;51.264;7.150;2023-03-01T16:28:58;8.52;;;4.40;;
20832;SDS011;56075;51.264;7.150;2023-03-01T16:31:29;8.93;;;4.03;;
20832;SDS011;56075;51.264;7.150;2023-03-01T16:34:01;8.75;;;4.22;;
20832;SDS011;56075;51.264;7.150;2023-03-01T16:36:32;9.15;;;4.38;;
20832;SDS011;56075;51.264;7.150;2023-03-01T16:39:03;9.00;;;4.05;;
20832;SDS011;56075;51.264;7.150;2023-03-01T16:41:35;9.10;;;4.32;;
20832;SDS011;56075;51.264;7.150;2023-03-01T16:44:06;10.00;;;3.92;;
20832;SDS011;56075;51.264;7.150;2023-03-01T16:46:37;8.20;;;3.50;;
20832;SDS011;56075;51.264;7.150;2023-03-01T16:49:08;8.73;;;4.10;;
20832;SDS011;56075;51.264;7.150;2023-03-01T16:51:40;6.73;;;3.47;;
20832;SDS011;56075;51.264;7.150;2023-03-01T16:54:11;8.67;;;3.50;;
20832;SDS011;56075;51.264;7.150;2023-03-01T16:56:43;8.70;;;4.00;;